sensor_id;sensor_type;location;lat;lon;timestamp;pressure;altitude;pressure_sealevel;temperature;humidity
62600;BME280;48671;48.922;2.346;2024-01-27T00:27:15;103436.50;;;10.07;55.13
62600;BME280;48671;48.922;2.346;2024-01-27T00:29:51;103421.75;;;10.01;54.52
62600;BME280;48671;48.922;2.346;2024-01-27T00:33:00;103460.84;;;10.12;54.56
62600;BME280;48671;48.922;2.346;2024-01-27T00:35:45;103445.16;;;10.01;54.77
62600;BME280;48671;48.922;2.346;2024-01-27T00:38:28;103446.88;;;9.99;54.94
62600;BME280;48671;48.922;2.346;2024-01-27T01:00:55;103465.06;;;9.95;55.33
62600;BME280;48671;48.922;2.346;2024-01-27T01:03:19;103414.53;;;9.62;55.64
62600;BME280;48671;48.922;2.346;2024-01-27T01:06:14;103433.69;;;9.75;55.69
62600;BME280;48671;48.922;2.346;2024-01-27T01:09:00;103415.31;;;9.58;55.58
62600;BME280;48671;48.922;2.346;2024-01-27T01:12:19;103407.50;;;9.52;55.30
62600;BME280;48671;48.922;2.346;2024-01-27T01:15:14;103386.66;;;9.46;55.36
62600;BME280;48671;48.922;2.346;2024-01-27T01:17:39;103417.13;;;9.62;55.70
62600;BME280;48671;48.922;2.346;2024-01-27T01:20:08;103405.84;;;9.63;55.47
62600;BME280;48671;48.922;2.346;2024-01-27T01:22:34;103410.16;;;9.61;55.58
62600;BME280;48671;48.922;2.346;2024-01-27T01:25:02;103435.34;;;9.67;55.58
62600;BME280;48671;48.922;2.346;2024-01-27T01:27:52;103446.69;;;9.75;54.98
62600;BME280;48671;48.922;2.346;2024-01-27T01:30:18;103431.81;;;9.58;55.51
62600;BME280;48671;48.922;2.346;2024-01-27T01:32:43;103396.13;;;9.41;55.78
62600;BME280;48671;48.922;2.346;2024-01-27T01:35:11;103405.72;;;9.48;55.60
62600;BME280;48671;48.922;2.346;2024-01-27T01:37:37;103401.34;;;9.44;55.59
62600;BME280;48671;48.922;2.346;2024-01-27T01:40:02;103409.97;;;9.41;55.47
62600;BME280;48671;48.922;2.346;2024-01-27T01:42:28;103420.47;;;9.49;56.18
62600;BME280;48671;48.922;2.346;2024-01-27T01:45:00;103418.69;;;9.45;56.09
62600;BME280;48671;48.922;2.346;2024-01-27T01:47:28;103435.22;;;9.53;55.94
62600;BME280;48671;48.922;2.346;2024-01-27T01:49:54;103411.66;;;9.34;56.20
62600;BME280;48671;48.922;2.346;2024-01-27T01:52:21;103399.53;;;9.32;56.23
62600;BME280;48671;48.922;2.346;2024-01-27T01:54:49;103386.41;;;9.20;56.22
62600;BME280;48671;48.922;2.346;2024-01-27T01:57:18;103413.44;;;9.38;56.04
62600;BME280;48671;48.922;2.346;2024-01-27T01:59:43;103402.09;;;9.30;55.77
62600;BME280;48671;48.922;2.346;2024-01-27T02:02:15;103418.63;;;9.42;56.33
62600;BME280;48671;48.922;2.346;2024-01-27T02:04:45;103382.88;;;9.13;56.27
62600;BME280;48671;48.922;2.346;2024-01-27T02:07:13;103432.47;;;9.37;56.63
62600;BME280;48671;48.922;2.346;2024-01-27T02:09:39;103435.03;;;9.33;56.00
62600;BME280;48671;48.922;2.346;2024-01-27T02:12:04;103419.34;;;9.22;56.29
62600;BME280;48671;48.922;2.346;2024-01-27T02:17:56;103394.06;;;9.09;56.58
62600;BME280;48671;48.922;2.346;2024-01-27T02:20:24;103437.59;;;9.31;56.19
62600;BME280;48671;48.922;2.346;2024-01-27T02:22:49;103401.03;;;9.10;56.94
62600;BME280;48671;48.922;2.346;2024-01-27T02:25:24;103402.72;;;9.08;55.81
62600;BME280;48671;48.922;2.346;2024-01-27T02:27:49;103422.69;;;9.12;56.01
62600;BME280;48671;48.922;2.346;2024-01-27T02:30:15;103382.59;;;8.87;56.71
62600;BME280;48671;48.922;2.346;2024-01-27T02:32:40;103422.72;;;9.13;56.60
62600;BME280;48671;48.922;2.346;2024-01-27T02:35:06;103400.00;;;8.96;56.50
62600;BME280;48671;48.922;2.346;2024-01-27T02:37:32;103407.84;;;9.02;56.18
62600;BME280;48671;48.922;2.346;2024-01-27T02:39:58;103410.47;;;9.05;56.23
62600;BME280;48671;48.922;2.346;2024-01-27T02:42:23;103406.94;;;8.97;56.75
62600;BME280;48671;48.922;2.346;2024-01-27T02:44:48;103377.34;;;8.82;56.20
62600;BME280;48671;48.922;2.346;2024-01-27T02:47:14;103380.72;;;8.74;56.25
62600;BME280;48671;48.922;2.346;2024-01-27T02:49:39;103387.63;;;8.72;56.34
62600;BME280;48671;48.922;2.346;2024-01-27T02:52:04;103384.13;;;8.70;56.38
62600;BME280;48671;48.922;2.346;2024-01-27T02:54:42;103358.88;;;8.55;56.74
62600;BME280;48671;48.922;2.346;2024-01-27T02:57:07;103378.03;;;8.66;55.84
62600;BME280;48671;48.922;2.346;2024-01-27T02:59:33;103399.69;;;8.68;56.70
62600;BME280;48671;48.922;2.346;2024-01-27T03:01:58;103419.69;;;8.77;56.76
62600;BME280;48671;48.922;2.346;2024-01-27T03:04:24;103383.91;;;8.53;56.87
62600;BME280;48671;48.922;2.346;2024-01-27T03:06:52;103415.22;;;8.63;56.64
62600;BME280;48671;48.922;2.346;2024-01-27T03:09:18;103415.19;;;8.62;56.89
62600;BME280;48671;48.922;2.346;2024-01-27T03:11:43;103398.63;;;8.52;56.89
62600;BME280;48671;48.922;2.346;2024-01-27T03:14:08;103361.19;;;8.36;56.65
62600;BME280;48671;48.922;2.346;2024-01-27T03:16:35;103373.44;;;8.45;56.78
62600;BME280;48671;48.922;2.346;2024-01-27T03:19:13;103336.03;;;8.28;56.69
62600;BME280;48671;48.922;2.346;2024-01-27T03:21:38;103356.88;;;8.37;56.79
62600;BME280;48671;48.922;2.346;2024-01-27T03:24:07;103397.84;;;8.58;56.61
62600;BME280;48671;48.922;2.346;2024-01-27T03:26:32;103404.72;;;8.54;56.29
62600;BME280;48671;48.922;2.346;2024-01-27T03:29:01;103378.34;;;8.27;56.62
62600;BME280;48671;48.922;2.346;2024-01-27T03:31:33;103353.88;;;8.05;56.78
62600;BME280;48671;48.922;2.346;2024-01-27T03:34:05;103349.38;;;7.94;56.32
62600;BME280;48671;48.922;2.346;2024-01-27T03:36:37;103356.50;;;8.08;57.22
62600;BME280;48671;48.922;2.346;2024-01-27T03:42:30;103362.44;;;8.01;57.11
62600;BME280;48671;48.922;2.346;2024-01-27T03:44:55;103404.19;;;8.20;57.68
62600;BME280;48671;48.922;2.346;2024-01-27T03:47:27;103364.25;;;8.05;57.16
62600;BME280;48671;48.922;2.346;2024-01-27T03:49:52;103363.34;;;8.04;57.31
62600;BME280;48671;48.922;2.346;2024-01-27T03:52:17;103325.94;;;7.87;57.16
62600;BME280;48671;48.922;2.346;2024-01-27T03:54:43;103341.59;;;7.94;57.30
62600;BME280;48671;48.922;2.346;2024-01-27T03:57:08;103359.88;;;8.04;57.01
62600;BME280;48671;48.922;2.346;2024-01-27T03:59:36;103350.34;;;8.01;57.66
62600;BME280;48671;48.922;2.346;2024-01-27T04:02:05;103359.97;;;8.08;58.18
62600;BME280;48671;48.922;2.346;2024-01-27T04:04:30;103342.53;;;8.00;57.52
62600;BME280;48671;48.922;2.346;2024-01-27T04:06:59;103381.84;;;8.29;57.55
62600;BME280;48671;48.922;2.346;2024-01-27T04:09:24;103337.41;;;8.03;57.58
62600;BME280;48671;48.922;2.346;2024-01-27T04:11:49;103371.38;;;8.21;57.79
62600;BME280;48671;48.922;2.346;2024-01-27T04:14:16;103360.00;;;8.13;57.55
62600;BME280;48671;48.922;2.346;2024-01-27T04:16:50;103384.34;;;8.21;57.46
62600;BME280;48671;48.922;2.346;2024-01-27T04:19:21;103357.28;;;8.04;57.48
62600;BME280;48671;48.922;2.346;2024-01-27T04:21:47;103340.72;;;7.92;57.73
62600;BME280;48671;48.922;2.346;2024-01-27T04:24:12;103358.09;;;8.00;56.87
62600;BME280;48671;48.922;2.346;2024-01-27T04:26:40;103362.31;;;7.93;57.25
62600;BME280;48671;48.922;2.346;2024-01-27T04:29:06;103364.81;;;7.85;57.39
62600;BME280;48671;48.922;2.346;2024-01-27T04:32:03;103369.94;;;7.82;57.14
62600;BME280;48671;48.922;2.346;2024-01-27T04:34:28;103354.00;;;7.58;57.25
62600;BME280;48671;48.922;2.346;2024-01-27T04:36:54;103387.06;;;7.72;57.29
62600;BME280;48671;48.922;2.346;2024-01-27T04:39:54;103350.38;;;7.48;57.08
62600;BME280;48671;48.922;2.346;2024-01-27T04:42:22;103383.34;;;7.57;56.71
62600;BME280;48671;48.922;2.346;2024-01-27T04:44:48;103377.25;;;7.55;57.95
62600;BME280;48671;48.922;2.346;2024-01-27T04:47:16;103398.09;;;7.59;57.71
62600;BME280;48671;48.922;2.346;2024-01-27T04:49:42;103380.53;;;7.43;57.78
62600;BME280;48671;48.922;2.346;2024-01-27T04:52:10;103394.47;;;7.51;57.70
62600;BME280;48671;48.922;2.346;2024-01-27T04:54:35;103374.34;;;7.35;57.86
62600;BME280;48671;48.922;2.346;2024-01-27T04:57:04;103376.13;;;7.39;57.84
62600;BME280;48671;48.922;2.346;2024-01-27T04:59:30;103408.28;;;7.50;57.87
62600;BME280;48671;48.922;2.346;2024-01-27T05:01:55;103360.28;;;7.20;58.90
62600;BME280;48671;48.922;2.346;2024-01-27T05:04:30;103375.91;;;7.25;58.21
62600;BME280;48671;48.922;2.346;2024-01-27T05:07:14;103381.88;;;7.19;57.70
62600;BME280;48671;48.922;2.346;2024-01-27T05:09:42;103382.78;;;7.24;58.46
62600;BME280;48671;48.922;2.346;2024-01-27T05:12:08;103382.50;;;7.08;56.66
62600;BME280;48671;48.922;2.346;2024-01-27T05:14:34;103406.66;;;7.08;58.41
62600;BME280;48671;48.922;2.346;2024-01-27T05:16:59;103396.19;;;7.00;58.08
62600;BME280;48671;48.922;2.346;2024-01-27T05:19:25;103423.94;;;7.09;58.68
62600;BME280;48671;48.922;2.346;2024-01-27T05:21:50;103422.25;;;7.10;58.70
62600;BME280;48671;48.922;2.346;2024-01-27T05:24:16;103404.94;;;7.07;58.80
62600;BME280;48671;48.922;2.346;2024-01-27T05:26:41;103398.72;;;6.99;58.78
62600;BME280;48671;48.922;2.346;2024-01-27T05:29:06;103437.00;;;7.15;59.02
62600;BME280;48671;48.922;2.346;2024-01-27T05:31:33;103404.94;;;7.09;59.02
62600;BME280;48671;48.922;2.346;2024-01-27T05:33:59;103415.41;;;7.13;58.23
62600;BME280;48671;48.922;2.346;2024-01-27T05:36:25;103395.31;;;7.00;58.41
62600;BME280;48671;48.922;2.346;2024-01-27T05:38:50;103398.72;;;6.99;58.70
62600;BME280;48671;48.922;2.346;2024-01-27T05:41:18;103402.28;;;7.04;58.83
62600;BME280;48671;48.922;2.346;2024-01-27T05:43:44;103415.34;;;7.12;58.40
62600;BME280;48671;48.922;2.346;2024-01-27T05:46:09;103383.91;;;6.90;58.77
62600;BME280;48671;48.922;2.346;2024-01-27T05:48:38;103375.09;;;6.82;58.70
62600;BME280;48671;48.922;2.346;2024-01-27T05:51:13;103383.00;;;6.90;59.21
62600;BME280;48671;48.922;2.346;2024-01-27T05:53:44;103409.25;;;7.08;58.92
62600;BME280;48671;48.922;2.346;2024-01-27T05:56:17;103377.09;;;6.95;58.61
62600;BME280;48671;48.922;2.346;2024-01-27T05:58:52;103391.13;;;7.07;59.51
62600;BME280;48671;48.922;2.346;2024-01-27T06:01:18;103369.31;;;6.94;59.08
62600;BME280;48671;48.922;2.346;2024-01-27T06:03:44;103394.69;;;7.13;59.23
62600;BME280;48671;48.922;2.346;2024-01-27T06:06:09;103378.13;;;7.05;58.35
62600;BME280;48671;48.922;2.346;2024-01-27T06:08:35;103396.31;;;7.08;58.42
62600;BME280;48671;48.922;2.346;2024-01-27T06:11:01;103399.75;;;7.09;59.35
62600;BME280;48671;48.922;2.346;2024-01-27T06:13:26;103398.97;;;7.11;59.30
62600;BME280;48671;48.922;2.346;2024-01-27T06:15:52;103367.47;;;6.88;58.82
62600;BME280;48671;48.922;2.346;2024-01-27T06:18:17;103406.66;;;7.07;58.00
62600;BME280;48671;48.922;2.346;2024-01-27T06:20:45;103401.22;;;6.94;59.07
62600;BME280;48671;48.922;2.346;2024-01-27T06:23:10;103400.25;;;6.89;58.41
62600;BME280;48671;48.922;2.346;2024-01-27T06:25:35;103400.31;;;6.92;59.13
62600;BME280;48671;48.922;2.346;2024-01-27T06:28:04;103420.34;;;7.02;59.08
62600;BME280;48671;48.922;2.346;2024-01-27T06:30:38;103386.31;;;6.83;58.90
62600;BME280;48671;48.922;2.346;2024-01-27T06:33:12;103375.84;;;6.76;58.28
62600;BME280;48671;48.922;2.346;2024-01-27T06:35:38;103360.09;;;6.64;58.78
62600;BME280;48671;48.922;2.346;2024-01-27T06:38:03;103380.88;;;6.69;58.59
62600;BME280;48671;48.922;2.346;2024-01-27T06:40:29;103387.66;;;6.62;58.63
62600;BME280;48671;48.922;2.346;2024-01-27T06:42:54;103364.88;;;6.46;58.45
62600;BME280;48671;48.922;2.346;2024-01-27T06:45:19;103379.75;;;6.56;59.74
62600;BME280;48671;48.922;2.346;2024-01-27T06:47:45;103412.78;;;6.68;59.14
62600;BME280;48671;48.922;2.346;2024-01-27T06:50:28;103393.63;;;6.60;59.29
62600;BME280;48671;48.922;2.346;2024-01-27T06:52:56;103366.53;;;6.42;58.92
62600;BME280;48671;48.922;2.346;2024-01-27T06:55:25;103402.28;;;6.62;59.43
62600;BME280;48671;48.922;2.346;2024-01-27T06:57:50;103395.38;;;6.61;59.22
62600;BME280;48671;48.922;2.346;2024-01-27T07:00:19;103373.38;;;6.40;58.74
62600;BME280;48671;48.922;2.346;2024-01-27T07:02:47;103388.22;;;6.49;59.66
62600;BME280;48671;48.922;2.346;2024-01-27T07:05:13;103406.75;;;6.69;60.09
62600;BME280;48671;48.922;2.346;2024-01-27T07:07:39;103391.88;;;6.59;59.65
62600;BME280;48671;48.922;2.346;2024-01-27T07:10:05;103400.72;;;6.70;59.66
62600;BME280;48671;48.922;2.346;2024-01-27T07:12:41;103367.75;;;6.58;59.64
62600;BME280;48671;48.922;2.346;2024-01-27T07:15:10;103385.19;;;6.68;58.96
62600;BME280;48671;48.922;2.346;2024-01-27T07:17:35;103389.38;;;6.62;59.38
62600;BME280;48671;48.922;2.346;2024-01-27T07:20:04;103420.66;;;6.74;58.92
62600;BME280;48671;48.922;2.346;2024-01-27T07:22:50;103356.78;;;6.30;58.50
62600;BME280;48671;48.922;2.346;2024-01-27T07:25:15;103400.44;;;6.54;59.04
62600;BME280;48671;48.922;2.346;2024-01-27T07:27:43;103397.59;;;6.44;59.39
62600;BME280;48671;48.922;2.346;2024-01-27T07:30:15;103390.47;;;6.32;58.81
62600;BME280;48671;48.922;2.346;2024-01-27T07:32:43;103433.84;;;6.45;58.71
62600;BME280;48671;48.922;2.346;2024-01-27T07:35:09;103439.78;;;6.41;59.44
62600;BME280;48671;48.922;2.346;2024-01-27T07:37:34;103438.09;;;6.43;59.77
62600;BME280;48671;48.922;2.346;2024-01-27T07:42:27;103372.00;;;6.17;60.18
62600;BME280;48671;48.922;2.346;2024-01-27T07:44:56;103411.38;;;6.43;60.07
62600;BME280;48671;48.922;2.346;2024-01-27T07:47:21;103415.69;;;6.44;59.38
62600;BME280;48671;48.922;2.346;2024-01-27T07:49:47;103416.63;;;6.46;59.93
62600;BME280;48671;48.922;2.346;2024-01-27T07:52:14;103421.91;;;6.52;59.81
62600;BME280;48671;48.922;2.346;2024-01-27T07:54:39;103394.19;;;6.45;59.85
62600;BME280;48671;48.922;2.346;2024-01-27T07:57:05;103418.09;;;6.74;60.07
62600;BME280;48671;48.922;2.346;2024-01-27T07:59:40;103386.91;;;6.68;59.74
62600;BME280;48671;48.922;2.346;2024-01-27T08:02:24;103401.13;;;6.90;59.29
62600;BME280;48671;48.922;2.346;2024-01-27T08:04:51;103388.91;;;6.81;58.38
62600;BME280;48671;48.922;2.346;2024-01-27T08:07:16;103420.41;;;7.06;59.46
62600;BME280;48671;48.922;2.346;2024-01-27T08:09:44;103423.84;;;7.04;58.13
62600;BME280;48671;48.922;2.346;2024-01-27T08:12:10;103433.28;;;7.01;58.68
62600;BME280;48671;48.922;2.346;2024-01-27T08:14:35;103386.44;;;6.89;58.35
62600;BME280;48671;48.922;2.346;2024-01-27T08:20:15;103374.91;;;7.18;58.21
62600;BME280;48671;48.922;2.346;2024-01-27T08:26:10;103412.09;;;7.70;57.85
62600;BME280;48671;48.922;2.346;2024-01-27T08:28:35;103409.66;;;7.81;57.17
62600;BME280;48671;48.922;2.346;2024-01-27T08:31:01;103427.25;;;8.01;57.05
62600;BME280;48671;48.922;2.346;2024-01-27T08:33:27;103395.16;;;7.94;56.47
62600;BME280;48671;48.922;2.346;2024-01-27T08:35:55;103421.38;;;8.12;56.40
62600;BME280;48671;48.922;2.346;2024-01-27T08:38:20;103416.97;;;8.07;55.65
62600;BME280;48671;48.922;2.346;2024-01-27T08:40:46;103410.78;;;7.97;56.09
62600;BME280;48671;48.922;2.346;2024-01-27T08:43:11;103386.31;;;7.80;56.76
62600;BME280;48671;48.922;2.346;2024-01-27T08:45:37;103423.13;;;8.12;56.63
62600;BME280;48671;48.922;2.346;2024-01-27T08:48:04;103364.06;;;7.94;56.25
62600;BME280;48671;48.922;2.346;2024-01-27T08:50:29;103403.13;;;8.05;55.28
62600;BME280;48671;48.922;2.346;2024-01-27T08:52:58;103400.50;;;8.03;56.61
62600;BME280;48671;48.922;2.346;2024-01-27T08:55:23;103388.19;;;7.88;55.69
62600;BME280;48671;48.922;2.346;2024-01-27T08:57:52;103388.03;;;7.79;55.96
62600;BME280;48671;48.922;2.346;2024-01-27T09:00:18;103387.03;;;7.71;56.09
62600;BME280;48671;48.922;2.346;2024-01-27T09:02:43;103392.09;;;7.63;56.44
62600;BME280;48671;48.922;2.346;2024-01-27T09:05:09;103394.81;;;7.71;56.64
62600;BME280;48671;48.922;2.346;2024-01-27T09:07:34;103419.41;;;7.97;57.09
62600;BME280;48671;48.922;2.346;2024-01-27T09:10:00;103390.94;;;8.01;56.82
62600;BME280;48671;48.922;2.346;2024-01-27T09:12:28;103398.09;;;8.15;56.42
62600;BME280;48671;48.922;2.346;2024-01-27T09:14:56;103378.75;;;7.93;56.27
62600;BME280;48671;48.922;2.346;2024-01-27T09:17:29;103371.06;;;8.00;56.47
62600;BME280;48671;48.922;2.346;2024-01-27T09:19:54;103371.94;;;8.00;56.35
62600;BME280;48671;48.922;2.346;2024-01-27T09:22:20;103380.66;;;8.07;56.18
62600;BME280;48671;48.922;2.346;2024-01-27T09:30:12;103378.47;;;8.34;56.93
62600;BME280;48671;48.922;2.346;2024-01-27T09:33:07;103369.47;;;8.73;56.78
62600;BME280;48671;48.922;2.346;2024-01-27T09:35:57;103365.25;;;8.83;55.75
62600;BME280;48671;48.922;2.346;2024-01-27T09:38:51;103365.38;;;8.94;55.35
62600;BME280;48671;48.922;2.346;2024-01-27T09:41:22;103405.31;;;9.08;55.11
62600;BME280;48671;48.922;2.346;2024-01-27T09:44:10;103397.47;;;9.00;55.38
62600;BME280;48671;48.922;2.346;2024-01-27T09:46:38;103348.00;;;8.88;55.90
62600;BME280;48671;48.922;2.346;2024-01-27T09:49:04;103398.75;;;9.42;55.11
62600;BME280;48671;48.922;2.346;2024-01-27T09:51:35;103409.25;;;9.57;54.27
62600;BME280;48671;48.922;2.346;2024-01-27T09:54:00;103413.59;;;9.57;54.57
62600;BME280;48671;48.922;2.346;2024-01-27T09:56:55;103375.31;;;9.37;54.11
62600;BME280;48671;48.922;2.346;2024-01-27T10:04:53;103404.47;;;10.08;54.08
62600;BME280;48671;48.922;2.346;2024-01-27T10:07:19;103402.78;;;10.19;54.15
62600;BME280;48671;48.922;2.346;2024-01-27T10:09:49;103396.81;;;10.31;54.21
62600;BME280;48671;48.922;2.346;2024-01-27T10:12:14;103405.63;;;10.62;53.83
62600;BME280;48671;48.922;2.346;2024-01-27T10:14:42;103423.13;;;10.95;53.52
62600;BME280;48671;48.922;2.346;2024-01-27T10:17:20;103404.91;;;11.11;51.63
62600;BME280;48671;48.922;2.346;2024-01-27T10:19:47;103391.88;;;10.92;52.03
62600;BME280;48671;48.922;2.346;2024-01-27T10:22:12;103394.47;;;10.95;52.73
62600;BME280;48671;48.922;2.346;2024-01-27T10:24:38;103402.31;;;11.06;51.71
62600;BME280;48671;48.922;2.346;2024-01-27T10:27:04;103404.94;;;11.17;52.58
62600;BME280;48671;48.922;2.346;2024-01-27T10:29:33;103411.91;;;11.38;51.35
62600;BME280;48671;48.922;2.346;2024-01-27T10:32:09;103386.69;;;11.23;51.69
62600;BME280;48671;48.922;2.346;2024-01-27T10:34:35;103392.78;;;11.22;51.49
62600;BME280;48671;48.922;2.346;2024-01-27T10:37:00;103391.91;;;11.23;51.36
62600;BME280;48671;48.922;2.346;2024-01-27T10:39:26;103386.69;;;11.28;51.66
62600;BME280;48671;48.922;2.346;2024-01-27T10:41:51;103402.38;;;11.58;51.28
62600;BME280;48671;48.922;2.346;2024-01-27T10:44:17;103397.16;;;11.63;51.38
62600;BME280;48671;48.922;2.346;2024-01-27T10:46:47;103385.84;;;11.68;50.98
62600;BME280;48671;48.922;2.346;2024-01-27T10:49:15;103391.06;;;11.90;50.71
62600;BME280;48671;48.922;2.346;2024-01-27T10:51:53;103387.56;;;12.17;50.71
62600;BME280;48671;48.922;2.346;2024-01-27T10:54:23;103365.72;;;12.41;50.16
62600;BME280;48671;48.922;2.346;2024-01-27T10:56:53;103369.09;;;12.61;50.42
62600;BME280;48671;48.922;2.346;2024-01-27T10:59:21;103373.44;;;12.67;50.31
62600;BME280;48671;48.922;2.346;2024-01-27T11:01:48;103386.38;;;12.87;49.69
62600;BME280;48671;48.922;2.346;2024-01-27T11:04:17;103366.34;;;12.89;49.33
62600;BME280;48671;48.922;2.346;2024-01-27T11:06:42;103361.16;;;12.81;48.85
62600;BME280;48671;48.922;2.346;2024-01-27T11:09:10;103377.72;;;12.79;44.46
62600;BME280;48671;48.922;2.346;2024-01-27T11:11:38;103368.25;;;12.56;44.66
62600;BME280;48671;48.922;2.346;2024-01-27T11:14:05;103370.06;;;12.36;43.17
62600;BME280;48671;48.922;2.346;2024-01-27T11:16:30;103325.81;;;12.05;44.21
62600;BME280;48671;48.922;2.346;2024-01-27T11:18:56;103358.88;;;12.05;43.74
62600;BME280;48671;48.922;2.346;2024-01-27T11:21:21;103324.13;;;11.72;44.34
62600;BME280;48671;48.922;2.346;2024-01-27T11:23:47;103355.41;;;11.89;45.67
62600;BME280;48671;48.922;2.346;2024-01-27T11:26:19;103351.94;;;11.90;45.41
62600;BME280;48671;48.922;2.346;2024-01-27T11:28:45;103358.88;;;11.80;44.93
62600;BME280;48671;48.922;2.346;2024-01-27T11:31:10;103345.84;;;11.79;44.78
62600;BME280;48671;48.922;2.346;2024-01-27T11:33:43;103349.31;;;11.87;45.53
62600;BME280;48671;48.922;2.346;2024-01-27T11:36:21;103351.06;;;11.99;46.00
62600;BME280;48671;48.922;2.346;2024-01-27T11:38:47;103349.31;;;11.98;45.36
62600;BME280;48671;48.922;2.346;2024-01-27T11:41:23;103338.03;;;11.94;44.68
62600;BME280;48671;48.922;2.346;2024-01-27T11:43:52;103327.63;;;11.85;43.10
62600;BME280;48671;48.922;2.346;2024-01-27T11:46:18;103330.22;;;11.88;44.87
62600;BME280;48671;48.922;2.346;2024-01-27T11:48:43;103329.34;;;11.90;42.86
62600;BME280;48671;48.922;2.346;2024-01-27T11:51:12;103313.69;;;11.86;44.06
62600;BME280;48671;48.922;2.346;2024-01-27T11:53:38;103318.03;;;11.75;44.15
62600;BME280;48671;48.922;2.346;2024-01-27T11:56:04;103314.56;;;11.69;43.30
62600;BME280;48671;48.922;2.346;2024-01-27T11:58:30;103317.19;;;11.74;44.03
62600;BME280;48671;48.922;2.346;2024-01-27T12:00:56;103283.28;;;11.60;43.83
62600;BME280;48671;48.922;2.346;2024-01-27T12:03:22;103292.84;;;11.67;44.13
62600;BME280;48671;48.922;2.346;2024-01-27T12:05:47;103305.88;;;11.90;44.46
62600;BME280;48671;48.922;2.346;2024-01-27T12:08:13;103316.31;;;11.93;44.78
62600;BME280;48671;48.922;2.346;2024-01-27T12:10:38;103311.91;;;12.02;42.82
62600;BME280;48671;48.922;2.346;2024-01-27T12:13:03;103302.31;;;12.05;43.19
62600;BME280;48671;48.922;2.346;2024-01-27T12:15:29;103282.31;;;12.03;43.05
62600;BME280;48671;48.922;2.346;2024-01-27T12:17:55;103290.09;;;12.18;43.86
62600;BME280;48671;48.922;2.346;2024-01-27T12:20:22;103303.97;;;12.31;44.05
62600;BME280;48671;48.922;2.346;2024-01-27T12:22:48;103306.56;;;12.37;43.42
62600;BME280;48671;48.922;2.346;2024-01-27T12:25:16;103303.91;;;12.38;41.16
62600;BME280;48671;48.922;2.346;2024-01-27T12:27:42;103310.88;;;12.41;42.77
62600;BME280;48671;48.922;2.346;2024-01-27T12:30:08;103304.78;;;12.39;42.52
62600;BME280;48671;48.922;2.346;2024-01-27T12:32:33;103303.88;;;12.48;42.05
62600;BME280;48671;48.922;2.346;2024-01-27T12:35:04;103287.41;;;12.39;42.11
62600;BME280;48671;48.922;2.346;2024-01-27T12:37:30;103268.22;;;12.39;43.35
62600;BME280;48671;48.922;2.346;2024-01-27T12:39:55;103265.56;;;12.48;42.85
62600;BME280;48671;48.922;2.346;2024-01-27T12:42:21;103236.88;;;12.42;42.98
62600;BME280;48671;48.922;2.346;2024-01-27T12:44:46;103241.25;;;12.46;42.87
62600;BME280;48671;48.922;2.346;2024-01-27T12:47:11;103229.06;;;12.39;42.85
62600;BME280;48671;48.922;2.346;2024-01-27T12:49:39;103230.88;;;12.29;42.59
62600;BME280;48671;48.922;2.346;2024-01-27T12:52:04;103232.66;;;12.24;42.65
62600;BME280;48671;48.922;2.346;2024-01-27T12:54:31;103222.28;;;12.09;42.41
62600;BME280;48671;48.922;2.346;2024-01-27T12:56:56;103205.81;;;11.93;42.98
62600;BME280;48671;48.922;2.346;2024-01-27T12:59:22;103227.53;;;12.07;43.22
62600;BME280;48671;48.922;2.346;2024-01-27T13:01:48;103204.06;;;11.97;43.13
62600;BME280;48671;48.922;2.346;2024-01-27T13:04:14;103222.28;;;12.12;43.70
62600;BME280;48671;48.922;2.346;2024-01-27T13:06:39;103180.56;;;12.00;43.12
62600;BME280;48671;48.922;2.346;2024-01-27T13:09:05;103165.84;;;11.91;43.46
62600;BME280;48671;48.922;2.346;2024-01-27T13:11:30;103195.28;;;12.14;43.07
62600;BME280;48671;48.922;2.346;2024-01-27T13:13:56;103192.66;;;12.21;42.75
62600;BME280;48671;48.922;2.346;2024-01-27T13:16:21;103203.06;;;12.22;42.31
62600;BME280;48671;48.922;2.346;2024-01-27T13:18:46;103203.06;;;12.25;41.35
62600;BME280;48671;48.922;2.346;2024-01-27T13:21:12;103208.22;;;12.34;42.48
62600;BME280;48671;48.922;2.346;2024-01-27T13:23:37;103206.50;;;12.32;41.47
62600;BME280;48671;48.922;2.346;2024-01-27T13:26:02;103187.41;;;12.24;41.95
62600;BME280;48671;48.922;2.346;2024-01-27T13:28:28;103151.81;;;12.12;41.89
62600;BME280;48671;48.922;2.346;2024-01-27T13:30:53;103168.97;;;12.45;42.60
62600;BME280;48671;48.922;2.346;2024-01-27T13:33:18;103187.69;;;12.99;42.00
62600;BME280;48671;48.922;2.346;2024-01-27T13:35:44;103169.94;;;13.33;41.37
62600;BME280;48671;48.922;2.346;2024-01-27T13:38:13;103175.84;;;13.54;40.62
62600;BME280;48671;48.922;2.346;2024-01-27T13:40:38;103147.91;;;13.56;41.16
62600;BME280;48671;48.922;2.346;2024-01-27T13:43:03;103171.28;;;13.67;39.23
62600;BME280;48671;48.922;2.346;2024-01-27T13:45:29;103167.84;;;13.65;40.15
62600;BME280;48671;48.922;2.346;2024-01-27T13:47:55;103160.22;;;13.48;38.05
62600;BME280;48671;48.922;2.346;2024-01-27T13:50:20;103155.97;;;13.38;38.99
62600;BME280;48671;48.922;2.346;2024-01-27T13:52:45;103153.41;;;13.33;39.58
62600;BME280;48671;48.922;2.346;2024-01-27T13:55:12;103162.06;;;13.37;39.90
62600;BME280;48671;48.922;2.346;2024-01-27T13:57:38;103149.91;;;13.32;39.60
62600;BME280;48671;48.922;2.346;2024-01-27T14:00:04;103156.00;;;13.34;40.33
62600;BME280;48671;48.922;2.346;2024-01-27T14:02:29;103162.03;;;13.41;40.60
62600;BME280;48671;48.922;2.346;2024-01-27T14:04:56;103129.00;;;13.32;40.56
62600;BME280;48671;48.922;2.346;2024-01-27T14:07:21;103141.94;;;13.43;40.58
62600;BME280;48671;48.922;2.346;2024-01-27T14:09:47;103149.75;;;13.48;40.24
62600;BME280;48671;48.922;2.346;2024-01-27T14:12:13;103115.09;;;13.29;40.73
62600;BME280;48671;48.922;2.346;2024-01-27T14:14:38;103111.63;;;13.27;40.61
62600;BME280;48671;48.922;2.346;2024-01-27T14:17:07;103108.13;;;13.29;41.02